Time;durP1;ratioP1;P1;durP2;ratioP2;P2;SDS_P1;SDS_P2;PMS_P1;PMS_P2;Temp;Humidity;BMP_temperature;BMP_pressure;BME280_temperature;BME280_humidity;BME280_pressure;Samples;Min_cycle;Max_cycle;Signal;HPM_P1;HPM_P2
2023/04/20 00:18:30;;;;;;;4.32;3.15;;;;;;;22.60;49.31;100208.59;41558097;28;20037;-73
2023/04/20 00:38:30;;;;;;;2.83;2.55;;;;;;;22.56;48.88;100200.13;41477692;28;20132;-73
2023/04/20 00:58:37;;;;;;;4.25;2.83;;;;;;;22.54;49.04;100199.41;41521571;28;20402;-74
2023/04/20 01:18:46;;;;;;;4.07;3.10;;;;;;;22.49;48.70;100177.88;41520128;28;20441;-75
2023/04/20 01:38:47;;;;;;;4.90;2.67;;;;;;;22.48;48.52;100184.91;41522639;28;20056;-74
2023/04/20 01:58:47;;;;;;;3.88;2.80;;;;;;;22.44;48.90;100177.44;41451684;28;21723;-75
2023/04/20 02:18:47;;;;;;;3.47;2.50;;;;;;;22.34;48.83;100186.09;41446054;28;20088;-74
2023/04/20 02:38:48;;;;;;;3.17;2.40;;;;;;;22.32;48.75;100188.00;41536423;28;20393;-74
2023/04/20 02:58:50;;;;;;;2.92;2.47;;;;;;;22.30;48.56;100199.66;41455317;28;20057;-74
2023/04/20 03:18:51;;;;;;;4.03;2.40;;;;;;;22.29;48.62;100212.03;41424129;28;20104;-73
2023/04/20 03:38:51;;;;;;;3.22;2.40;;;;;;;22.26;48.77;100208.81;41450299;28;20050;-74
2023/04/20 03:58:53;;;;;;;3.10;2.45;;;;;;;22.23;48.64;100223.09;41471098;28;20041;-74
2023/04/20 04:18:53;;;;;;;4.93;2.70;;;;;;;22.23;49.25;100229.19;41539320;28;20057;-79
2023/04/20 04:38:55;;;;;;;9.95;2.92;;;;;;;22.27;49.71;100221.03;41468813;28;20053;-76
2023/04/20 04:58:55;;;;;;;19.02;4.45;;;;;;;22.21;47.59;100233.75;41544472;28;20049;-76
2023/04/20 05:18:56;;;;;;;7.47;4.05;;;;;;;22.19;48.79;100248.03;41528857;28;20052;-74
2023/04/20 05:38:56;;;;;;;9.50;3.40;;;;;;;22.20;49.24;100262.91;41539953;28;20050;-72
2023/04/20 05:58:58;;;;;;;8.80;3.65;;;;;;;22.24;48.82;100266.97;41445969;28;20107;-73
2023/04/20 06:18:59;;;;;;;11.95;3.30;;;;;;;22.24;49.23;100269.63;41484870;28;20119;-75
2023/04/20 06:38:59;;;;;;;4.97;3.00;;;;;;;22.28;49.07;100272.84;41558051;28;20708;-76
2023/04/20 06:59:00;;;;;;;11.45;4.68;;;;;;;22.18;45.02;100278.00;41557433;28;20037;-73
2023/04/20 07:19:00;;;;;;;5.40;4.55;;;;;;;22.09;42.26;100284.06;41446577;28;20152;-73
2023/04/20 07:39:00;;;;;;;5.45;4.55;;;;;;;21.99;41.67;100287.47;41521040;28;20497;-74
2023/04/20 07:59:02;;;;;;;6.35;4.50;;;;;;;21.96;40.86;100281.59;41396974;28;20180;-72
2023/04/20 08:19:08;;;;;;;7.20;4.40;;;;;;;21.96;40.76;100279.81;41507838;28;20128;-72
2023/04/20 08:39:12;;;;;;;4.97;3.85;;;;;;;21.94;40.20;100276.47;41499909;28;20053;-71
2023/04/20 08:59:14;;;;;;;5.10;4.00;;;;;;;21.96;41.02;100277.19;41429141;28;20152;-73
2023/04/20 09:19:14;;;;;;;6.25;4.05;;;;;;;22.00;40.78;100269.84;41471940;28;20057;-72
2023/04/20 09:39:20;;;;;;;4.57;3.40;;;;;;;22.01;39.66;100261.00;41429387;28;21283;-75
2023/04/20 09:59:22;;;;;;;5.53;3.42;;;;;;;22.07;40.12;100247.28;41495056;28;20042;-72
2023/04/20 10:19:23;;;;;;;4.13;3.65;;;;;;;22.13;39.95;100233.59;41513146;28;20049;-72
2023/04/20 10:39:26;;;;;;;4.55;3.10;;;;;;;22.18;37.29;100231.41;41497751;28;20054;-72
2023/04/20 10:59:27;;;;;;;3.38;3.08;;;;;;;22.21;34.41;100214.47;41420872;28;20042;-73
2023/04/20 11:19:36;;;;;;;4.57;3.20;;;;;;;22.37;35.40;100185.84;41488249;28;20053;-73
2023/04/20 11:39:37;;;;;;;3.13;2.80;;;;;;;22.39;33.65;100175.19;41491474;28;20049;-73
2023/04/20 11:59:38;;;;;;;5.65;3.10;;;;;;;22.34;32.78;100185.28;41448219;28;20038;-73
2023/04/20 12:19:38;;;;;;;3.90;3.33;;;;;;;22.57;32.58;100175.41;41498756;28;20042;-72
2023/04/20 12:39:39;;;;;;;3.70;2.83;;;;;;;22.64;34.43;100159.84;41488164;28;20072;-75
2023/04/20 12:59:47;;;;;;;4.05;2.97;;;;;;;22.70;34.03;100141.69;41527697;28;20042;-76
2023/04/20 13:19:48;;;;;;;4.45;2.80;;;;;;;22.75;34.15;100135.16;41424343;28;20045;-71
2023/04/20 13:39:49;;;;;;;10.85;3.70;;;;;;;22.81;34.36;100119.63;41503503;28;20188;-74
2023/04/20 13:59:49;;;;;;;5.50;2.83;;;;;;;22.78;34.27;100111.97;41475857;28;20073;-75
2023/04/20 14:19:50;;;;;;;5.32;2.70;;;;;;;22.97;32.36;100094.47;41478068;28;20041;-76
2023/04/20 14:39:52;;;;;;;4.10;2.25;;;;;;;23.18;32.57;100083.84;41548323;28;20042;-76
2023/04/20 14:59:53;;;;;;;3.35;2.40;;;;;;;23.86;32.86;100056.44;41430592;28;20053;-77
2023/04/20 15:19:53;;;;;;;2.45;2.13;;;;;;;24.37;31.99;100056.09;41520639;28;20050;-75
2023/04/20 15:39:54;;;;;;;2.85;1.88;;;;;;;23.98;31.61;100067.69;41574437;28;20046;-75
2023/04/20 15:59:57;;;;;;;6.05;2.17;;;;;;;23.38;32.29;100097.84;41529522;28;20046;-80
2023/04/20 16:19:57;;;;;;;3.20;2.40;;;;;;;23.08;33.50;100104.91;41573811;28;20065;-80
2023/04/20 16:40:08;;;;;;;6.22;1.90;;;;;;;22.94;35.43;100106.16;41445202;28;20058;-80
2023/04/20 17:00:10;;;;;;;3.90;2.60;;;;;;;22.90;36.14;100122.41;41460463;28;20045;-79
2023/04/20 17:20:11;;;;;;;3.10;2.10;;;;;;;22.84;37.92;100135.19;41552016;28;20056;-78
2023/04/20 17:40:11;;;;;;;6.18;2.55;;;;;;;22.80;39.12;100148.78;41531970;28;20422;-82
2023/04/20 18:00:12;;;;;;;4.63;2.20;;;;;;;22.78;39.55;100162.13;41438495;28;20125;-79
2023/04/20 18:20:13;;;;;;;12.65;5.05;;;;;;;22.83;43.15;100191.59;41511727;28;20073;-85
2023/04/20 18:40:14;;;;;;;13.82;6.38;;;;;;;22.90;43.77;100220.94;41616501;28;20045;-83
2023/04/20 19:00:15;;;;;;;8.48;4.68;;;;;;;22.89;43.10;100228.97;41446948;28;20438;-78
2023/04/20 19:20:16;;;;;;;9.45;4.95;;;;;;;22.88;43.66;100233.44;41506744;28;20068;-79
2023/04/20 19:40:20;;;;;;;13.27;5.03;;;;;;;22.89;44.66;100243.03;41501382;28;20080;-80
2023/04/20 20:00:21;;;;;;;12.82;4.57;;;;;;;22.87;45.17;100271.34;41608311;28;20072;-77
2023/04/20 20:20:22;;;;;;;7.93;4.43;;;;;;;22.84;44.77;100277.75;41492586;28;20452;-78
2023/04/20 20:40:23;;;;;;;6.90;4.07;;;;;;;22.82;45.00;100270.94;41514706;28;20136;-79
2023/04/20 21:00:23;;;;;;;6.53;3.90;;;;;;;22.79;44.80;100290.50;41558697;28;20049;-77
2023/04/20 21:20:24;;;;;;;7.85;3.72;;;;;;;22.77;44.84;100294.25;41607314;28;20404;-77
2023/04/20 21:40:25;;;;;;;8.40;3.78;;;;;;;22.71;44.80;100300.88;41550655;28;20053;-79
2023/04/20 22:00:26;;;;;;;5.13;3.20;;;;;;;22.68;44.99;100301.97;41474456;28;20042;-79
2023/04/20 22:20:26;;;;;;;5.72;3.35;;;;;;;22.66;45.75;100311.00;41554955;28;20038;-77
2023/04/20 22:40:27;;;;;;;4.75;3.38;;;;;;;22.63;46.18;100298.06;41510810;28;20400;-80
2023/04/20 23:00:27;;;;;;;4.13;3.13;;;;;;;22.60;46.11;100287.78;41483456;28;20045;-80
2023/04/20 23:20:28;;;;;;;4.88;3.00;;;;;;;22.57;46.26;100293.28;41455813;28;20064;-80
2023/04/20 23:40:30;;;;;;;4.10;3.00;;;;;;;22.52;46.17;100291.03;41551835;28;20042;-77
